Sunday, November 19, 2017, 11:08 PM EST
Back to Local

KPSM, Pease Air Force Base / Portsmouth

Location: Portsmouth, NH, United States Lat: 43.083
Local Time: 11:08 PM EST ( 4:08 GMT) Lon: -70.817
Time Zone: US/Eastern Elev: 101 ft

Show me the last for .
Show Decoded

2017-11-19 21:56 METAR KPSM 200256Z 28008G19KT 10SM BKN044 02/M06 A2957 RMK AO2A SLP016 T00241060
                 52038 CHINO RWY16 $ =
2017-11-19 20:56 METAR KPSM 200156Z 26015G20KT 10SM BKN040 03/M06 A2954 RMK AO2A SLP006 T00281056
                 CHINO RWY16 $ =
2017-11-19 19:56 METAR KPSM 200056Z 27011KT 10SM BKN038 03/M05 A2951 RMK AO2A SLP996 T00331049
                 CHINO RWY16 $ =
2017-11-19 18:56 METAR KPSM 192356Z 28010G22KT 10SM BKN039 03/M04 A2946 RMK AO2A SLP979 T00341043
                 10100 20034 52049 CHINO RWY16 $ =
2017-11-19 17:56 METAR KPSM 192256Z 28014G20KT 10SM BKN040 04/M04 A2943 RMK AO2A PRESRR SLP968
                 T00381039 CHINO RWY16 $ =
2017-11-19 16:56 METAR KPSM 192156Z 29016G27KT 10SM SCT042 05/M04 A2937 RMK AO2A PK WND 28031/46
                 PRESRR SLP948 T00471036 CHINO RWY16 $ =
2017-11-19 15:56 METAR KPSM 192056Z 28018G30KT 10SM BKN042 06/M02 A2931 RMK AO2A PK WND 25032/17
                 PRESRR SLP928 T00621024 52063 CHINO RWY16 $ =
2017-11-19 14:56 METAR KPSM 191956Z 27014G26KT 10SM BKN037 08/M01 A2923 RMK AO2A PK WND 26038/12
                 PRESRR SLP901 T00791006 CHINO RWY16 $ =
2017-11-19 13:56 METAR KPSM 191856Z 27023G37KT 10SM BKN035 BKN085 09/02 A2916 RMK AO2A PK WND
                 28037/53 SLP877 T00910015 CHINO RWY16 $ =
2017-11-19 12:56 METAR KPSM 191756Z 28017G31KT 10SM SCT025 BKN031 BKN080 10/04 A2912 RMK AO2A PK
                 WND 25035/1658 RAE04 SLP863 P0000 60008 T00980035 10149 20098 53013 CHINO RWY16
                 $ =
2017-11-19 12:41 METAR KPSM 191741Z 27020G28KT 10SM SCT024 SCT060 BKN080 10/05 A2911 RMK AO2A
                 CHINO RWY16 $ =
2017-11-19 12:29 METAR KPSM 191729Z 27020G30KT 10SM BKN024 BKN060 OVC080 10/05 A2910 RMK AO2A
                 PRESRR CHINO RWY16 $ =
2017-11-19 12:04 METAR KPSM 191704Z 25020G35KT 10SM FEW020 SCT046 BKN070 OVC180 13/08 A2907 RMK
                 AO2A $ =
2017-11-19 11:56 METAR KPSM 191656Z 24013G20KT 10SM -RA FEW013 SCT022 BKN045 OVC075 14/10 A2906
                 RMK AO2A RAE37B55 SLP843 P0003 T01390095 $ =
2017-11-19 11:38 METAR KPSM 191638Z 22012KT 10SM BKN022 BKN035 OVC075 14/12 A2905 RMK AO2A $ =
2017-11-19 11:08 METAR KPSM 191608Z 20011G17KT 7SM -RA FEW013 SCT024 OVC065 14/13 A2906 RMK AO2A
                 $ =
2017-11-19 10:56 METAR KPSM 191556Z 19010G20KT 6SM -RA BR SCT013 BKN022 OVC046 15/13 A2906 RMK
                 AO2A VIS S 2 RAB09 SLP843 P0001 T01460128 $ =
2017-11-19 10:29 METAR KPSM 191529Z 19009G18KT 7SM -RA SCT011 BKN015 BKN026 OVC043 15/13 A2908
                 RMK AO2A $ =
2017-11-19 10:09 METAR KPSM 191509Z 18012G18KT 6SM -RA BR OVC013 15/13 A2908 RMK AO2A $ =
2017-11-19 09:56 METAR KPSM 191456Z 17010KT 10SM BKN014 BKN040 OVC070 15/13 A2909 RMK AO2A RAE09
                 SLP853 P0000 60004 T01470134 57024 $ =
2017-11-19 09:09 METAR KPSM 191409Z 18010G14KT 7SM BKN011 BKN021 OVC040 14/13 A2911 RMK AO2A $ =
2017-11-19 08:56 METAR KPSM 191356Z 18010KT 7SM -RA BKN011 OVC015 14/13 A2912 RMK AO2A RAE14B52
                 SLP863 P0001 T01430133 $ =
2017-11-19 08:52 METAR KPSM 191352Z 19008KT 7SM -RA OVC011 14/13 A2912 RMK AO2A $ =
2017-11-19 08:14 METAR KPSM 191314Z 19006KT 7SM OVC011 14/13 A2913 RMK AO2A $ =
2017-11-19 07:56 METAR KPSM 191256Z 20009KT 6SM -RA BR OVC011 14/13 A2914 RMK AO2A SLP870 P0003
                 T01400130 $ =
2017-11-19 07:46 METAR KPSM 191246Z 19007KT 7SM -RA OVC011 14/13 A2915 RMK AO2A $ =
2017-11-19 07:21 METAR KPSM 191221Z 18009KT 4SM -RA BR BKN009 OVC018 13/13 A2916 RMK AO2A $ =
2017-11-19 06:56 METAR KPSM 191156Z 18008KT 4SM -RA BR FEW008 BKN013 BKN020 OVC085 13/12 A2916
                 RMK AO2A SLP877 P0000 60007 70024 T01290124 10129 20091 57039 $ =
2017-11-19 06:45 METAR KPSM 191145Z 18009KT 5SM -RA BR BKN013 BKN020 OVC085 13/12 A2915 RMK AO2A
                 $ =
2017-11-19 06:35 METAR KPSM 191135Z 16009KT 4SM -RA BR SCT016 BKN020 BKN030 OVC080 13/12 A2916
                 RMK AO2A $ =
2017-11-19 06:29 METAR KPSM 191129Z 16008KT 4SM -RA BR BKN016 OVC080 13/12 A2916 RMK AO2A $ =
2017-11-19 05:56 METAR KPSM 191056Z 14006KT 5SM -RA BR SCT031 BKN049 OVC065 12/12 A2918 RMK AO2A
                 SLP884 P0003 T01190116 $ =
2017-11-19 05:16 METAR KPSM 191016Z 15005KT 3SM -RA BR SCT035 BKN050 OVC075 11/11 A2922 RMK A02A
                 RAB15 $ =
2017-11-19 05:08 METAR KPSM 191008Z 14005KT 6SM BR SCT036 OVC050 11/11 A2922 RMK AO2A RAE07 $ =
2017-11-19 04:56 METAR KPSM 190956Z 15008KT 5SM -RA BR SCT030 OVC046 11/11 A2923 RMK AO2A RAB25
                 SLP901 P0001 T01100107 $ =
2017-11-19 04:25 METAR KPSM 190925Z 15008KT 4SM -RA BR OVC030 11/10 A2926 RMK AO2A RAB25 $ =
2017-11-19 03:56 METAR KPSM 190856Z 14009KT 3SM BR SCT003 OVC024 10/10 A2927 RMK AO2A SLP914
                 60003 T01040101 57047 $ =
2017-11-19 03:27 METAR KPSM 190827Z 14008KT 3SM BR OVC003 10/10 A2929 RMK AO2A $ =
2017-11-19 03:01 METAR KPSM 190801Z 14006KT 5SM BR OVC004 10/09 A2932 RMK AO2A $ =
2017-11-19 02:56 METAR KPSM 190756Z 13008KT 5SM BR BKN005 OVC009 10/09 A2933 RMK AO2A RAE54
                 SLP935 P0001 T00970094 $ =
2017-11-19 02:40 METAR KPSM 190740Z 12007KT 4SM -RA BR OVC008 10/09 A2933 RMK AO2A $ =
2017-11-19 01:56 METAR KPSM 190656Z 14005KT 5SM -RA BR OVC014 09/09 A2938 RMK AO2A SLP952 P0002
                 T00930088 $ =
2017-11-19 01:42 METAR KPSM 190642Z 14006KT 4SM -RA BR OVC016 09/09 A2939 RMK AO2A $ =
2017-11-19 00:56 METAR KPSM 190556Z 15006KT 5SM -RA BR SCT023 OVC050 09/09 A2941 RMK AO2A SLP962
                 P0002 60016 T00930087 10094 20040 57042 $ =
2017-11-19 00:26 METAR KPSM 190526Z 16005KT 6SM -RA BR FEW014 BKN022 OVC050 09/09 A2944 RMK AO2A
                 $ =
2017-11-18 23:56 METAR KPSM 190456Z 16003KT 5SM -RA BR OVC015 09/08 A2946 RMK AO2A SLP979 P0001
                 T00890081 400931046 $ =
2017-11-18 23:35 METAR KPSM 190435Z 16004KT 4SM -RA BR BKN019 OVC024 09/08 A2948 RMK AO2A $ =

Support USWX by starting your Amazon purchase here.